createdAt,value
2023-03-08T00:00:39.236Z,62.57
2023-03-08T00:02:41.101Z,62.84
2023-03-08T00:04:42.201Z,62.87
2023-03-08T00:06:43.183Z,62.83
2023-03-08T00:10:46.334Z,63.18
2023-03-08T00:12:47.847Z,62.96
2023-03-08T00:14:49.362Z,63.07
2023-03-08T00:16:50.436Z,63.31
2023-03-08T00:18:51.957Z,63.06
2023-03-08T00:20:53.309Z,63.26
2023-03-08T00:22:55.074Z,63.34
2023-03-08T00:24:56.957Z,63.63
2023-03-08T00:26:58.884Z,63.36
2023-03-08T00:29:00.907Z,63.63
2023-03-08T00:31:01.880Z,63.62
2023-03-08T00:33:02.918Z,63.54
2023-03-08T00:35:03.976Z,63.68
2023-03-08T00:37:05.486Z,63.48
2023-03-08T00:39:07.151Z,63.77
2023-03-08T00:41:08.244Z,63.8
2023-03-08T00:43:09.652Z,64.24
2023-03-08T00:45:11.616Z,63.91
2023-03-08T00:47:13.294Z,64.24
2023-03-08T00:49:14.575Z,64.2
2023-03-08T00:53:17.085Z,64.58
2023-03-08T00:55:18.708Z,64.48
2023-03-08T00:59:21.029Z,64.47
2023-03-08T01:01:30.721Z,64.12
2023-03-08T01:03:24.648Z,63.84
2023-03-08T01:05:25.988Z,64.19
2023-03-08T01:08:11.231Z,64.83
2023-03-08T01:10:12.493Z,64.67
2023-03-08T01:12:13.709Z,64.38
2023-03-08T01:14:15.071Z,64.9
2023-03-08T01:16:16.550Z,64.63
2023-03-08T01:18:18.440Z,64.64
2023-03-08T01:20:19.534Z,64.77
2023-03-08T01:22:21.415Z,64.79
2023-03-08T01:24:22.855Z,64.87
2023-03-08T01:26:24.119Z,65.1
2023-03-08T01:28:25.460Z,64.58
2023-03-08T01:30:27.286Z,64.69
2023-03-08T01:32:29.313Z,65.4
2023-03-08T01:34:30.262Z,65.74
2023-03-08T01:36:32.134Z,65.52
2023-03-08T01:38:33.687Z,65.15
2023-03-08T01:40:35.604Z,65.62
2023-03-08T01:42:37.255Z,65.37
2023-03-08T01:46:40.455Z,65.41
2023-03-08T01:48:42.253Z,65.48
2023-03-08T01:50:44.022Z,65.21
2023-03-08T01:52:45.870Z,65.28
2023-03-08T01:54:47.206Z,65.58
2023-03-08T01:56:49.014Z,65.37
2023-03-08T01:58:50.352Z,65.74
2023-03-08T02:00:52.107Z,65.47
2023-03-08T02:02:53.426Z,65.63
2023-03-08T02:04:54.403Z,65.87
2023-03-08T02:06:56.444Z,65.15
2023-03-08T02:08:57.583Z,65.46
2023-03-08T02:10:59.539Z,65.94
2023-03-08T02:13:01.290Z,65.82
2023-03-08T02:15:03.026Z,66.03
2023-03-08T02:17:04.912Z,66.12
2023-03-08T02:19:06.289Z,66.33
2023-03-08T02:21:07.609Z,66.53
2023-03-08T02:23:09.191Z,66.56
2023-03-08T02:25:10.963Z,66.75
2023-03-08T02:29:13.804Z,66.91
2023-03-08T02:31:15.393Z,66.57
2023-03-08T02:33:17.187Z,66.18
2023-03-08T02:35:18.632Z,66.49
2023-03-08T02:37:20.192Z,66.56
2023-03-08T02:39:22.162Z,67.03
2023-03-08T02:41:23.746Z,66.56
2023-03-08T02:43:25.333Z,66.93
2023-03-08T02:45:26.773Z,67.02
2023-03-08T02:47:28.287Z,67.13
2023-03-08T02:49:30.140Z,67.61
2023-03-08T02:51:31.657Z,67.36
2023-03-08T02:53:33.203Z,67.57
2023-03-08T02:55:34.257Z,67.41
2023-03-08T02:57:35.900Z,67.58
2023-03-08T02:59:37.521Z,67.38
2023-03-08T03:01:39.509Z,67.23
2023-03-08T03:03:40.727Z,66.99
2023-03-08T03:05:42.292Z,66.65
2023-03-08T03:07:43.397Z,66.84
2023-03-08T03:11:45.911Z,66.91
2023-03-08T03:13:47.516Z,66.9
2023-03-08T03:15:48.687Z,66.77
2023-03-08T03:17:50.347Z,67
2023-03-08T03:19:51.710Z,66.73
2023-03-08T03:21:53.284Z,66.63
2023-03-08T03:23:54.824Z,66.66
2023-03-08T03:25:56.414Z,67.07
2023-03-08T03:27:57.991Z,66.91
2023-03-08T03:29:59.010Z,66.67
2023-03-08T03:32:01.009Z,66.7
2023-03-08T03:34:02.211Z,66.3
2023-03-08T03:36:03.373Z,66.59
2023-03-08T03:38:05.172Z,66.66
2023-03-08T03:40:06.616Z,66.87
2023-03-08T03:44:09.666Z,66.79
2023-03-08T03:46:11.225Z,66.5
2023-03-08T03:48:12.743Z,66.94
2023-03-08T03:50:14.115Z,67.18
2023-03-08T03:52:15.532Z,67.12
2023-03-08T03:54:16.846Z,67.2
2023-03-08T03:56:18.312Z,67.43
2023-03-08T03:58:19.497Z,67.8
2023-03-08T04:00:21.201Z,67.39
2023-03-08T04:02:22.532Z,67.35
2023-03-08T04:04:24.011Z,67.13
2023-03-08T04:06:25.690Z,67.69
2023-03-08T04:08:27.501Z,67.58
2023-03-08T04:10:28.968Z,67.36
2023-03-08T04:12:30.753Z,67.62
2023-03-08T04:14:32.255Z,67.17
2023-03-08T04:16:33.935Z,67.63
2023-03-08T04:18:35.291Z,67.37
2023-03-08T04:20:36.551Z,67.34
2023-03-08T04:22:37.992Z,66.92
2023-03-08T04:26:41.042Z,66.64
2023-03-08T04:28:42.216Z,66.92
2023-03-08T04:30:45.942Z,66.94
2023-03-08T04:32:45.476Z,67.31
2023-03-08T04:34:47.179Z,67.4
2023-03-08T04:36:48.941Z,67.71
2023-03-08T04:38:50.087Z,68.41
2023-03-08T04:40:52.072Z,68.62
2023-03-08T04:42:53.570Z,69.04
2023-03-08T04:44:54.850Z,69.03
2023-03-08T04:46:56.768Z,69.01
2023-03-08T04:48:58.173Z,69.08
2023-03-08T04:50:59.981Z,68.58
2023-03-08T04:53:01.231Z,68.55
2023-03-08T04:55:02.679Z,68.9
2023-03-08T04:59:04.952Z,69.01
2023-03-08T05:01:06.882Z,69.2
2023-03-08T05:03:08.326Z,69.28
2023-03-08T05:05:09.489Z,69.59
2023-03-08T05:09:13.366Z,69.92
2023-03-08T05:11:14.490Z,70.33
2023-03-08T05:13:15.917Z,70.28
2023-03-08T05:15:17.801Z,70.22
2023-03-08T05:17:19.359Z,70.28
2023-03-08T05:19:20.677Z,70.26
2023-03-08T05:21:21.755Z,69.59
2023-03-08T05:23:22.994Z,69.71
2023-03-08T05:25:24.932Z,69.73
2023-03-08T05:27:26.872Z,69.65
2023-03-08T05:29:28.046Z,69.94
2023-03-08T05:31:30.037Z,69.9
2023-03-08T05:33:31.541Z,69.85
2023-03-08T05:35:33.593Z,69.79
2023-03-08T05:37:35.442Z,70.03
2023-03-08T05:41:38.468Z,70.3
2023-03-08T05:43:39.681Z,70.15
2023-03-08T05:45:41.025Z,70.12
2023-03-08T05:47:42.407Z,70.16
2023-03-08T05:51:45.758Z,69.94
2023-03-08T05:53:47.721Z,70.15
2023-03-08T05:55:49.433Z,70.17
2023-03-08T05:57:50.648Z,70.07
2023-03-08T05:59:52.215Z,70.31
2023-03-08T06:01:53.319Z,70.36
2023-03-08T06:03:55.114Z,70.25
2023-03-08T06:05:56.539Z,70.15
2023-03-08T06:07:57.953Z,70.06
2023-03-08T06:09:59.580Z,69.9
2023-03-08T06:12:01.494Z,70.38
2023-03-08T06:14:03.172Z,70.31
2023-03-08T06:16:04.642Z,70.05
2023-03-08T06:18:05.710Z,70.23
2023-03-08T06:20:07.122Z,70.3
2023-03-08T06:22:08.441Z,70.12
2023-03-08T06:24:10.368Z,69.97
2023-03-08T06:26:11.434Z,69.81
2023-03-08T06:28:13.221Z,69.86
2023-03-08T06:30:15.082Z,70.01
2023-03-08T06:34:18.722Z,69.74
2023-03-08T06:36:20.319Z,69.84
2023-03-08T06:38:22.222Z,70.23
2023-03-08T06:40:23.715Z,70.18
2023-03-08T06:42:38.469Z,70.33
2023-03-08T06:44:26.334Z,69.91
2023-03-08T06:46:28.058Z,71.47
2023-03-08T06:48:30.087Z,71.78
2023-03-08T06:50:31.963Z,71.77
2023-03-08T06:52:33.393Z,71.94
2023-03-08T06:54:35.193Z,72.55
2023-03-08T06:56:36.346Z,73.09
2023-03-08T06:58:38.021Z,73.8
2023-03-08T07:00:40.010Z,75.59
2023-03-08T07:02:41.985Z,75.73
2023-03-08T07:06:44.179Z,77.06
2023-03-08T07:08:45.824Z,77.44
2023-03-08T07:10:47.666Z,78.06
2023-03-08T07:12:48.717Z,77.9
2023-03-08T07:16:51.672Z,78.53
2023-03-08T07:18:52.977Z,78.47
2023-03-08T07:22:55.927Z,78.08
2023-03-08T07:24:57.738Z,78.07
2023-03-08T07:26:59.498Z,78.31
2023-03-08T07:29:00.920Z,78.65
2023-03-08T07:31:02.022Z,78.81
2023-03-08T07:33:03.823Z,78.84
2023-03-08T07:35:05.441Z,79.12
2023-03-08T07:37:07.113Z,79.32
2023-03-08T07:39:08.496Z,79.46
2023-03-08T07:41:09.898Z,79.54
2023-03-08T07:43:11.493Z,79.68
2023-03-08T07:45:13.401Z,79.52
2023-03-08T07:47:15.073Z,79.71
2023-03-08T07:49:17.042Z,79.65
2023-03-08T07:51:19.071Z,79.82
2023-03-08T07:52:02.894Z,79.84
2023-03-08T07:54:04.452Z,79.88
2023-03-08T07:56:05.661Z,80
2023-03-08T08:00:09.194Z,79.89
2023-03-08T08:02:10.508Z,80.18
2023-03-08T08:04:12.339Z,80.4
2023-03-08T08:06:13.856Z,80.72
2023-03-08T08:10:16.592Z,83.5
2023-03-08T08:12:17.907Z,84.56
2023-03-08T08:14:19.658Z,85.91
2023-03-08T08:16:21.066Z,86.5
2023-03-08T08:18:22.496Z,87.17
2023-03-08T08:20:24.185Z,87.85
2023-03-08T08:22:25.265Z,88.32
2023-03-08T08:24:27.002Z,88.74
2023-03-08T08:26:28.427Z,89.34
2023-03-08T08:28:30.080Z,90.02
2023-03-08T08:30:31.575Z,90.83
2023-03-08T08:32:32.747Z,91.11
2023-03-08T08:34:34.345Z,91.7
2023-03-08T08:36:35.823Z,92.08
2023-03-08T08:38:37.028Z,92.54
2023-03-08T08:42:40.250Z,93.11
2023-03-08T08:44:41.885Z,93.23
2023-03-08T08:46:43.891Z,93.41
2023-03-08T08:48:45.353Z,93.51
2023-03-08T08:50:46.798Z,93.71
2023-03-08T08:52:48.221Z,93.82
2023-03-08T08:54:50.156Z,93.91
2023-03-08T08:56:52.051Z,93.94
2023-03-08T08:58:53.140Z,94.06
2023-03-08T09:00:54.783Z,94.09
2023-03-08T09:02:56.645Z,94.16
2023-03-08T09:04:58.008Z,94.39
2023-03-08T09:06:59.387Z,94.61
2023-03-08T09:09:01.435Z,94.84
2023-03-08T09:11:03.424Z,95.04
2023-03-08T09:13:04.793Z,94.91
2023-03-08T09:15:05.975Z,94.78
2023-03-08T09:17:07.955Z,94.87
2023-03-08T09:19:09.007Z,94.86
2023-03-08T09:21:10.811Z,94.56
2023-03-08T09:25:13.486Z,94.41
2023-03-08T09:27:15.332Z,94.27
2023-03-08T09:29:17.111Z,94.17
2023-03-08T09:31:18.175Z,93.9
2023-03-08T09:35:21.236Z,94.3
2023-03-08T09:37:22.467Z,93.83
2023-03-08T09:39:23.697Z,94
2023-03-08T09:41:25.465Z,94.28
2023-03-08T09:43:26.835Z,94.13
2023-03-08T09:45:27.882Z,93.69
2023-03-08T09:47:29.445Z,93.82
2023-03-08T09:49:30.489Z,93.97
2023-03-08T09:51:31.683Z,93.76
2023-03-08T09:53:33.712Z,93.33
2023-03-08T09:55:35.468Z,93.22
2023-03-08T09:57:36.833Z,93.71
2023-03-08T09:59:38.153Z,93.73
2023-03-08T10:01:39.844Z,93.44
2023-03-08T10:03:40.992Z,93.49
2023-03-08T10:05:42.201Z,93.19
2023-03-08T10:07:43.757Z,93.01
2023-03-08T10:09:45.674Z,93.51
2023-03-08T10:11:47.269Z,93.08
2023-03-08T10:13:49.167Z,93.2
2023-03-08T10:17:52.074Z,93.38
2023-03-08T10:19:53.651Z,92.89
2023-03-08T10:21:54.760Z,92.89
2023-03-08T10:23:55.986Z,93.15
2023-03-08T10:25:57.226Z,93.31
2023-03-08T10:27:59.150Z,93.16
2023-03-08T10:30:01.131Z,93.53
2023-03-08T10:32:02.564Z,93.68
2023-03-08T10:34:04.140Z,93.49
2023-03-08T10:36:06.151Z,93.23
2023-03-08T10:38:07.931Z,93.86
2023-03-08T10:40:09.552Z,93.66
2023-03-08T10:42:10.575Z,93.74
2023-03-08T10:44:11.741Z,93.61
2023-03-08T10:46:13.315Z,93.45
2023-03-08T10:48:15.096Z,93.36
2023-03-08T10:50:16.395Z,93.09
2023-03-08T10:52:17.944Z,93.78
2023-03-08T10:54:19.341Z,93.53
2023-03-08T10:56:21.278Z,93.46
2023-03-08T11:00:24.014Z,93.56
2023-03-08T11:02:25.179Z,93.43
2023-03-08T11:04:26.478Z,93.47
2023-03-08T11:06:28.373Z,93.79
2023-03-08T11:08:29.795Z,93.61
2023-03-08T11:10:31.527Z,93.4
2023-03-08T11:12:33.048Z,93.73
2023-03-08T11:14:34.780Z,93.62
2023-03-08T11:16:36.150Z,93.63
2023-03-08T11:18:37.345Z,93.9
2023-03-08T11:20:39.095Z,94.15
2023-03-08T11:22:40.981Z,94.1
2023-03-08T11:24:42.376Z,94
2023-03-08T11:26:44.182Z,94.19
2023-03-08T11:28:45.555Z,94.12
2023-03-08T11:30:47.390Z,93.9
2023-03-08T11:32:48.437Z,94.46
2023-03-08T11:34:50.303Z,94.02
2023-03-08T11:36:52.150Z,93.8
2023-03-08T11:38:53.453Z,93.95
2023-03-08T11:42:56.547Z,93.47
2023-03-08T11:44:57.991Z,93.68
2023-03-08T11:46:59.020Z,93.83
2023-03-08T11:49:00.471Z,94.18
2023-03-08T11:51:01.877Z,94.01
2023-03-08T11:53:03.049Z,94.07
2023-03-08T11:55:04.613Z,93.97
2023-03-08T11:57:06.011Z,94.05
2023-03-08T11:59:07.702Z,94.19
2023-03-08T12:01:08.778Z,94.22
2023-03-08T12:03:10.317Z,94.14
2023-03-08T12:05:11.568Z,94.11
2023-03-08T12:07:13.086Z,94.39
2023-03-08T12:09:14.557Z,94.35
2023-03-08T12:11:15.831Z,94.33
2023-03-08T12:15:19.320Z,94.49
2023-03-08T12:17:20.527Z,94.61
2023-03-08T12:19:21.729Z,94.85
2023-03-08T12:21:22.868Z,94.77
2023-03-08T12:25:25.737Z,94.97
2023-03-08T12:27:27.704Z,94.92
2023-03-08T12:29:29.250Z,94.97
2023-03-08T12:31:30.783Z,95.09
2023-03-08T12:33:31.862Z,95.22
2023-03-08T12:35:33.434Z,95.22
2023-03-08T12:37:34.762Z,95.22
2023-03-08T12:41:38.574Z,95.32
2023-03-08T12:43:39.980Z,95.34
2023-03-08T12:45:41.018Z,95.32
2023-03-08T12:47:50.747Z,95.39
2023-03-08T12:51:54.551Z,95.44
2023-03-08T12:53:47.680Z,95.44
2023-03-08T12:55:48.738Z,95.44
2023-03-08T12:57:50.536Z,95.47
2023-03-08T12:59:52.101Z,95.45
2023-03-08T13:01:53.421Z,95.43
2023-03-08T13:03:54.942Z,95.41
2023-03-08T13:05:55.979Z,95.46
2023-03-08T13:07:57.298Z,95.31
2023-03-08T13:09:59.010Z,95.02
2023-03-08T13:14:01.788Z,94.98
2023-03-08T13:16:03.285Z,94.65
2023-03-08T13:18:05.180Z,94.22
2023-03-08T13:20:07.050Z,94.17
2023-03-08T13:24:10.730Z,94.27
2023-03-08T13:26:11.816Z,94.19
2023-03-08T13:28:13.106Z,93.92
2023-03-08T13:30:14.811Z,94.07
2023-03-08T13:32:16.672Z,94.2
2023-03-08T13:34:18.068Z,94.15
2023-03-08T13:36:19.618Z,94.18
2023-03-08T13:38:20.875Z,93.87
2023-03-08T13:40:22.145Z,93.67
2023-03-08T13:42:23.904Z,93.46
2023-03-08T13:44:25.587Z,93.2
2023-03-08T13:46:27.158Z,93.26
2023-03-08T13:48:28.216Z,93.13
2023-03-08T13:50:29.752Z,93.36
2023-03-08T13:52:30.817Z,93.24
2023-03-08T13:54:32.165Z,93.27
2023-03-08T13:56:34.016Z,93.25
2023-03-08T13:58:35.345Z,93.51
2023-03-08T14:00:36.570Z,93.5
2023-03-08T14:02:37.737Z,93.65
2023-03-08T14:06:40.535Z,93.79
2023-03-08T14:08:41.746Z,93.83
2023-03-08T14:10:43.098Z,93.61
2023-03-08T14:12:44.209Z,93.59
2023-03-08T14:14:45.235Z,93.61
2023-03-08T14:16:46.934Z,93.33
2023-03-08T14:18:48.129Z,92.82
2023-03-08T14:20:49.661Z,92.7
2023-03-08T14:22:51.139Z,92.7
2023-03-08T14:24:53.031Z,92.66
2023-03-08T14:26:54.671Z,92.45
2023-03-08T14:28:56.436Z,92.14
2023-03-08T14:30:58.263Z,91.95
2023-03-08T14:32:59.322Z,91.17
2023-03-08T14:35:00.777Z,91.05
2023-03-08T14:37:45.898Z,91.24
2023-03-08T14:39:47.424Z,91.64
2023-03-08T14:43:50.146Z,92.35
2023-03-08T14:45:51.583Z,92.79
2023-03-08T14:47:53.457Z,92.88
2023-03-08T14:49:55.205Z,93.04
2023-03-08T14:51:56.125Z,93.27
2023-03-08T14:53:57.670Z,93.65
2023-03-08T14:55:58.990Z,93.98
2023-03-08T14:58:00.069Z,94.17
2023-03-08T15:00:01.373Z,94.16
2023-03-08T15:02:02.917Z,93.58
2023-03-08T15:04:04.213Z,93.63
2023-03-08T15:06:05.834Z,93.69
2023-03-08T15:08:07.353Z,93.89
2023-03-08T15:10:09.272Z,94.18
2023-03-08T15:12:10.292Z,94.22
2023-03-08T15:14:12.047Z,93.54
2023-03-08T15:16:14.447Z,93.75
2023-03-08T15:18:14.901Z,93.63
2023-03-08T15:20:16.747Z,93.89
2023-03-08T15:22:17.852Z,94
2023-03-08T15:24:22.204Z,94.24
2023-03-08T15:26:20.874Z,94.35
2023-03-08T15:28:22.041Z,94.5
2023-03-08T15:32:27.821Z,94.6
2023-03-08T15:34:28.181Z,94.53
2023-03-08T15:36:28.042Z,94.77
2023-03-08T15:38:29.406Z,94.86
2023-03-08T15:42:32.562Z,95.1
2023-03-08T15:44:33.545Z,95.08
2023-03-08T15:46:34.747Z,95.12
2023-03-08T15:48:36.395Z,95.01
2023-03-08T15:50:37.467Z,95.23
2023-03-08T15:52:39.004Z,95.29
2023-03-08T15:54:40.423Z,95.44
2023-03-08T15:56:41.726Z,95.56
2023-03-08T15:58:43.110Z,95.54
2023-03-08T16:00:44.512Z,95.6
2023-03-08T16:02:46.046Z,95.7
2023-03-08T16:04:47.372Z,95.72
2023-03-08T16:06:48.766Z,95.82
2023-03-08T16:08:49.863Z,95.74
2023-03-08T16:43:15.449Z,94.19
2023-03-08T16:45:16.549Z,94.3
2023-03-08T16:47:18.467Z,93.95
2023-03-08T16:49:20.303Z,93.98
2023-03-08T16:51:22.232Z,94.09
2023-03-08T16:53:23.371Z,94.14
2023-03-08T16:57:26.344Z,94.4
2023-03-08T16:59:27.895Z,94.45
2023-03-08T17:01:28.929Z,94.26
2023-03-08T17:03:30.744Z,94.22
2023-03-08T17:07:34.134Z,94.22
2023-03-08T17:09:35.445Z,94.12
2023-03-08T17:11:36.934Z,94.21
2023-03-08T17:13:38.748Z,94.3
2023-03-08T17:15:39.903Z,94.39
2023-03-08T17:17:40.829Z,94.47
2023-03-08T17:19:42.778Z,94.59
2023-03-08T17:21:44.148Z,94.74
2023-03-08T17:23:45.589Z,94.86
2023-03-08T17:25:46.616Z,94.7
2023-03-08T17:27:48.366Z,94.85
2023-03-08T17:29:49.832Z,95.03
2023-03-08T17:31:51.146Z,95.14
2023-03-08T17:33:52.531Z,95.25
2023-03-08T17:35:53.623Z,95.42
2023-03-08T17:37:54.909Z,95.57
2023-03-08T17:39:56.423Z,95.77
2023-03-08T17:41:58.245Z,95.74
2023-03-08T17:43:59.290Z,95.8
2023-03-08T17:46:01.138Z,95.86
2023-03-08T17:50:03.810Z,96.05
2023-03-08T17:52:04.971Z,96.12
2023-03-08T17:56:07.123Z,96.16
2023-03-08T17:58:08.486Z,96.23
2023-03-08T18:00:10.242Z,96.28
2023-03-08T18:02:11.520Z,96.32
2023-03-08T18:06:15.177Z,96.36
2023-03-08T18:08:16.261Z,96.42
2023-03-08T18:10:17.799Z,96.45
2023-03-08T18:12:18.989Z,96.49
2023-03-08T18:14:26.188Z,96.5
2023-03-08T18:16:22.183Z,96.47
2023-03-08T18:18:24.040Z,96.53
2023-03-08T18:20:25.914Z,96.5
2023-03-08T18:22:27.089Z,96.56
2023-03-08T18:24:28.532Z,96.57
2023-03-08T18:26:30.290Z,96.59
2023-03-08T18:28:31.829Z,96.64
2023-03-08T18:30:33.368Z,96.63
2023-03-08T18:32:34.874Z,96.57
2023-03-08T18:34:35.777Z,96.58
2023-03-08T18:38:39.170Z,96.55
2023-03-08T18:40:48.851Z,96.5
2023-03-08T18:42:42.765Z,96.52
2023-03-08T18:44:44.546Z,96.53
2023-03-08T18:48:46.676Z,96.59
2023-03-08T18:50:48.411Z,96.57
2023-03-08T18:52:49.664Z,96.54
2023-03-08T18:54:50.743Z,96.56
2023-03-08T18:56:52.698Z,96.57
2023-03-08T18:58:54.330Z,96.62
2023-03-08T19:00:55.624Z,96.59
2023-03-08T19:02:57.484Z,96.63
2023-03-08T19:04:59.049Z,96.64
2023-03-08T19:07:00.167Z,96.63
2023-03-08T19:09:01.971Z,96.66
2023-03-08T19:11:03.598Z,96.72
2023-03-08T19:13:04.864Z,96.77
2023-03-08T19:15:06.007Z,96.79
2023-03-08T19:17:07.949Z,96.75
2023-03-08T19:19:09.718Z,96.83
2023-03-08T19:21:11.175Z,96.83
2023-03-08T19:23:12.693Z,96.87
2023-03-08T19:25:14.454Z,96.87
2023-03-08T19:27:15.954Z,96.87
2023-03-08T19:31:19.053Z,96.92
2023-03-08T19:33:30.316Z,96.95
2023-03-08T19:37:23.706Z,97
2023-03-08T19:39:24.664Z,97.01
2023-03-08T19:41:25.748Z,97.02
2023-03-08T19:43:27.029Z,97.04
2023-03-08T19:45:28.280Z,97.07
2023-03-08T19:47:29.603Z,97.08
2023-03-08T19:49:31.542Z,97.05
2023-03-08T19:51:32.766Z,97.07
2023-03-08T19:53:34.380Z,97.11
2023-03-08T19:55:35.614Z,97.14
2023-03-08T19:57:37.519Z,97.15
2023-03-08T19:59:39.045Z,97.16
2023-03-08T20:01:40.274Z,97.18
2023-03-08T20:03:41.545Z,97.21
2023-03-08T20:05:42.550Z,97.2
2023-03-08T20:07:44.102Z,97.19
2023-03-08T20:09:45.940Z,97.2
2023-03-08T20:13:48.791Z,97.21
2023-03-08T20:15:50.142Z,97.23
2023-03-08T20:17:51.663Z,97.23
2023-03-08T20:19:52.772Z,97.23
2023-03-08T20:21:53.721Z,97.22
2023-03-08T20:23:55.017Z,97.23
2023-03-08T20:25:56.623Z,97.26
2023-03-08T20:27:58.140Z,97.27
2023-03-08T20:30:00.001Z,97.28
2023-03-08T20:32:01.727Z,97.27
2023-03-08T20:34:03.028Z,97.27
2023-03-08T20:36:04.623Z,97.27
2023-03-08T20:38:05.790Z,97.29
2023-03-08T20:40:07.704Z,97.32
2023-03-08T20:42:09.222Z,97.34
2023-03-08T20:46:12.150Z,97.33
2023-03-08T20:48:13.608Z,97.37
2023-03-08T20:50:15.036Z,97.37
2023-03-08T20:52:16.734Z,97.39
2023-03-08T20:56:19.988Z,97.38
2023-03-08T20:58:21.533Z,97.42
2023-03-08T21:00:23.311Z,97.44
2023-03-08T21:02:24.352Z,97.44
2023-03-08T21:04:26.198Z,97.43
2023-03-08T21:06:28.111Z,97.4
2023-03-08T21:08:29.068Z,97.38
2023-03-08T21:10:30.463Z,97.37
2023-03-08T21:12:31.841Z,97.32
2023-03-08T21:14:33.149Z,97.27
2023-03-08T21:16:35.071Z,97.24
2023-03-08T21:18:36.171Z,97.18
2023-03-08T21:20:37.321Z,97.14
2023-03-08T21:22:38.368Z,97.11
2023-03-08T21:23:22.213Z,97.08
2023-03-08T21:25:23.486Z,97.05
2023-03-08T21:27:24.744Z,97
2023-03-08T21:29:26.160Z,96.97
2023-03-08T21:33:29.000Z,96.9
2023-03-08T21:35:30.987Z,96.88
2023-03-08T21:37:32.693Z,96.78
2023-03-08T21:39:34.362Z,96.71
2023-03-08T21:41:35.271Z,96.59
2023-03-08T21:43:37.217Z,96.49
2023-03-08T21:45:38.186Z,96.41
2023-03-08T21:47:40.163Z,96.29
2023-03-08T21:49:41.632Z,96.29
2023-03-08T21:51:42.663Z,96.23
2023-03-08T21:55:45.824Z,96.14
2023-03-08T21:57:47.010Z,96.08
2023-03-08T21:59:48.669Z,96.05
2023-03-08T22:01:49.976Z,96.02
2023-03-08T22:05:52.071Z,96
2023-03-08T22:07:53.990Z,96
2023-03-08T22:09:55.586Z,95.99
2023-03-08T22:11:57.491Z,96.01
2023-03-08T22:13:58.566Z,95.98
2023-03-08T22:15:59.720Z,95.99
2023-03-08T22:18:01.160Z,96.02
2023-03-08T22:20:02.776Z,96.02
2023-03-08T22:22:03.911Z,96.07
2023-03-08T22:24:05.577Z,96.11
2023-03-08T22:26:06.887Z,96.14
2023-03-08T22:28:07.891Z,96.17
2023-03-08T22:30:09.123Z,96.1
2023-03-08T22:32:10.112Z,95.91
2023-03-08T22:34:11.648Z,95.85
2023-03-08T22:36:13.296Z,95.81
2023-03-08T22:38:14.736Z,95.86
2023-03-08T22:40:16.073Z,95.8
2023-03-08T22:42:17.057Z,95.81
2023-03-08T22:44:18.312Z,95.68
2023-03-08T22:46:20.008Z,95.63
2023-03-08T22:48:21.359Z,95.64
2023-03-08T22:50:23.059Z,95.51
2023-03-08T22:54:25.948Z,95.7
2023-03-08T22:56:27.691Z,95.63
2023-03-08T22:58:29.579Z,95.57
2023-03-08T23:00:30.987Z,95.68
2023-03-08T23:04:33.634Z,95.92
2023-03-08T23:06:34.816Z,95.98
2023-03-08T23:08:36.014Z,96.08
2023-03-08T23:10:37.515Z,96.06
2023-03-08T23:12:38.584Z,96.04
2023-03-08T23:14:39.654Z,96.1
2023-03-08T23:16:40.932Z,96.22
2023-03-08T23:18:41.909Z,96.24
2023-03-08T23:20:43.733Z,96.29
2023-03-08T23:22:45.374Z,96.37
2023-03-08T23:24:46.649Z,96.32
2023-03-08T23:26:48.552Z,96.33
2023-03-08T23:28:50.455Z,96.29
2023-03-08T23:30:51.816Z,96.24
2023-03-08T23:32:53.177Z,96.2
2023-03-08T23:34:54.825Z,96.18
2023-03-08T23:36:56.152Z,96.18
2023-03-08T23:38:57.809Z,96.07
2023-03-08T23:40:59.173Z,96.05
2023-03-08T23:43:00.157Z,96.03
2023-03-08T23:47:03.788Z,95.86
2023-03-08T23:49:05.178Z,95.76
2023-03-08T23:51:06.820Z,95.56
2023-03-08T23:53:08.171Z,95.41
2023-03-08T23:55:09.289Z,95.3
2023-03-08T23:57:10.702Z,95.19
2023-03-08T23:59:12.244Z,95.14
